首页
METAR-TAF:

METAR-TAF

机场 :

塔布 盧爾德, 法国

纬度: 43-11N, 经度: 000-00W, 海拔: 379米

当前天气观测

该预报发布于34分钟前的21:30 UTC
风速4节,风向南转南东
温度 10°C
湿度 82%
气压 1019 hPa
能见度10公里或以上
1500米以下无云,无积雨云

METAR: LFBT 152130Z AUTO 15004KT CAVOK 10/07 Q1019 NOSIG

时间: 00:04 (22:04 UTC)

预报

该预报发布于5小时和4分钟前的17:00 UTC
预报有效从15日的 18点(UTC)到 16日的 18点(UTC)
风速8节,风向西南
能见度10公里或以上
1500米以下无云,无积雨云
成为
从 16日的 08点(UTC)到 16日的 10点(UTC)
风速5节,风向东北

TAF: LFBT 151700Z 1518/1618 22008KT CAVOK BECMG 1608/1610 05005KT

超过4000个机场的气象观测和天气预报(METAR&TAF报告)。

可查询的气象台以黄色和红色小点在地图上表示。

将鼠标移到小点上方,可查看气象台名称。

然后点击查看天气观测和预报。

如需切换地图:点击带黑十字的绿色按钮放大地图;点击带横线的绿色按钮缩小地图;或者点击绿色箭头查看邻近地区的地图。


METAR-TAF: